sensor_id;sensor_type;location;lat;lon;timestamp;pressure;altitude;pressure_sealevel;temperature
45393;BMP280;31129;44.810;10.334;2022-07-24T00:02:12;100704.91;;;29.91
45393;BMP280;31129;44.810;10.334;2022-07-24T00:04:38;100703.00;;;29.93
45393;BMP280;31129;44.810;10.334;2022-07-24T00:07:17;100709.34;;;29.94
45393;BMP280;31129;44.810;10.334;2022-07-24T00:09:44;100711.44;;;29.93
45393;BMP280;31129;44.810;10.334;2022-07-24T00:12:10;100708.34;;;29.89
45393;BMP280;31129;44.810;10.334;2022-07-24T00:14:36;100709.69;;;29.88
45393;BMP280;31129;44.810;10.334;2022-07-24T00:17:02;100714.63;;;29.76
45393;BMP280;31129;44.810;10.334;2022-07-24T00:19:28;100734.31;;;29.76
45393;BMP280;31129;44.810;10.334;2022-07-24T00:22:00;100736.78;;;29.82
45393;BMP280;31129;44.810;10.334;2022-07-24T00:24:29;100740.31;;;29.94
45393;BMP280;31129;44.810;10.334;2022-07-24T00:26:55;100741.19;;;29.85
45393;BMP280;31129;44.810;10.334;2022-07-24T00:29:21;100741.72;;;29.60
45393;BMP280;31129;44.810;10.334;2022-07-24T00:31:47;100737.16;;;29.43
45393;BMP280;31129;44.810;10.334;2022-07-24T00:34:13;100734.34;;;29.43
45393;BMP280;31129;44.810;10.334;2022-07-24T00:36:43;100735.81;;;29.44
45393;BMP280;31129;44.810;10.334;2022-07-24T00:39:09;100740.44;;;29.40
45393;BMP280;31129;44.810;10.334;2022-07-24T00:41:35;100737.38;;;29.36
45393;BMP280;31129;44.810;10.334;2022-07-24T00:44:13;100741.63;;;29.25
45393;BMP280;31129;44.810;10.334;2022-07-24T00:46:41;100740.97;;;29.15
45393;BMP280;31129;44.810;10.334;2022-07-24T00:49:11;100747.97;;;29.26
45393;BMP280;31129;44.810;10.334;2022-07-24T00:51:40;100744.94;;;29.33
45393;BMP280;31129;44.810;10.334;2022-07-24T00:54:11;100744.00;;;29.07
45393;BMP280;31129;44.810;10.334;2022-07-24T00:56:38;100743.94;;;29.29
45393;BMP280;31129;44.810;10.334;2022-07-24T00:59:07;100743.75;;;29.36
45393;BMP280;31129;44.810;10.334;2022-07-24T01:01:36;100742.41;;;29.37
45393;BMP280;31129;44.810;10.334;2022-07-24T01:04:03;100738.03;;;29.46
45393;BMP280;31129;44.810;10.334;2022-07-24T01:06:29;100739.59;;;29.37
45393;BMP280;31129;44.810;10.334;2022-07-24T01:08:56;100737.75;;;29.42
45393;BMP280;31129;44.810;10.334;2022-07-24T01:11:22;100752.84;;;29.46
45393;BMP280;31129;44.810;10.334;2022-07-24T01:13:49;100742.91;;;29.45
45393;BMP280;31129;44.810;10.334;2022-07-24T01:16:16;100751.44;;;29.36
45393;BMP280;31129;44.810;10.334;2022-07-24T01:18:43;100755.00;;;29.36
45393;BMP280;31129;44.810;10.334;2022-07-24T01:21:09;100762.03;;;29.47
45393;BMP280;31129;44.810;10.334;2022-07-24T01:23:36;100762.13;;;29.49
45393;BMP280;31129;44.810;10.334;2022-07-24T01:26:06;100774.13;;;29.49
45393;BMP280;31129;44.810;10.334;2022-07-24T01:28:33;100772.06;;;29.50
45393;BMP280;31129;44.810;10.334;2022-07-24T01:30:59;100770.78;;;29.41
45393;BMP280;31129;44.810;10.334;2022-07-24T01:33:28;100770.84;;;29.53
45393;BMP280;31129;44.810;10.334;2022-07-24T01:35:54;100765.69;;;29.49
45393;BMP280;31129;44.810;10.334;2022-07-24T01:38:20;100767.03;;;29.48
45393;BMP280;31129;44.810;10.334;2022-07-24T01:40:46;100771.81;;;29.46
45393;BMP280;31129;44.810;10.334;2022-07-24T01:43:12;100774.38;;;29.53
45393;BMP280;31129;44.810;10.334;2022-07-24T01:45:38;100766.44;;;29.50
45393;BMP280;31129;44.810;10.334;2022-07-24T01:48:05;100782.22;;;29.55
45393;BMP280;31129;44.810;10.334;2022-07-24T01:50:31;100777.69;;;29.50
45393;BMP280;31129;44.810;10.334;2022-07-24T01:52:57;100773.50;;;29.51
45393;BMP280;31129;44.810;10.334;2022-07-24T01:55:24;100775.69;;;29.41
45393;BMP280;31129;44.810;10.334;2022-07-24T01:57:50;100772.28;;;29.54
45393;BMP280;31129;44.810;10.334;2022-07-24T02:00:16;100777.56;;;29.59
45393;BMP280;31129;44.810;10.334;2022-07-24T02:02:46;100770.22;;;29.54
45393;BMP280;31129;44.810;10.334;2022-07-24T02:05:13;100779.13;;;29.51
45393;BMP280;31129;44.810;10.334;2022-07-24T02:07:43;100776.22;;;29.49
45393;BMP280;31129;44.810;10.334;2022-07-24T02:10:12;100766.28;;;29.48
45393;BMP280;31129;44.810;10.334;2022-07-24T02:12:38;100771.91;;;29.48
45393;BMP280;31129;44.810;10.334;2022-07-24T02:15:05;100771.22;;;29.59
45393;BMP280;31129;44.810;10.334;2022-07-24T02:17:32;100769.97;;;29.50
45393;BMP280;31129;44.810;10.334;2022-07-24T02:19:58;100777.69;;;29.50
45393;BMP280;31129;44.810;10.334;2022-07-24T02:22:24;100782.69;;;29.51
45393;BMP280;31129;44.810;10.334;2022-07-24T02:24:53;100776.75;;;29.36
45393;BMP280;31129;44.810;10.334;2022-07-24T02:27:19;100776.22;;;29.28
45393;BMP280;31129;44.810;10.334;2022-07-24T02:29:45;100768.63;;;29.19
45393;BMP280;31129;44.810;10.334;2022-07-24T02:32:11;100779.38;;;29.22
45393;BMP280;31129;44.810;10.334;2022-07-24T02:34:37;100778.06;;;29.23
45393;BMP280;31129;44.810;10.334;2022-07-24T02:37:03;100769.25;;;29.29
45393;BMP280;31129;44.810;10.334;2022-07-24T02:39:32;100769.00;;;29.25
45393;BMP280;31129;44.810;10.334;2022-07-24T02:41:58;100774.13;;;29.17
45393;BMP280;31129;44.810;10.334;2022-07-24T02:44:27;100767.34;;;29.10
45393;BMP280;31129;44.810;10.334;2022-07-24T02:46:57;100768.16;;;29.01
45393;BMP280;31129;44.810;10.334;2022-07-24T02:49:23;100772.72;;;29.06
45393;BMP280;31129;44.810;10.334;2022-07-24T02:51:49;100782.03;;;29.08
45393;BMP280;31129;44.810;10.334;2022-07-24T02:54:18;100771.13;;;29.03
45393;BMP280;31129;44.810;10.334;2022-07-24T02:56:44;100777.53;;;28.94
45393;BMP280;31129;44.810;10.334;2022-07-24T02:59:11;100779.72;;;28.95
45393;BMP280;31129;44.810;10.334;2022-07-24T03:01:37;100780.19;;;28.92
45393;BMP280;31129;44.810;10.334;2022-07-24T03:04:03;100779.09;;;28.85
45393;BMP280;31129;44.810;10.334;2022-07-24T03:06:30;100773.28;;;28.83
45393;BMP280;31129;44.810;10.334;2022-07-24T03:08:56;100779.22;;;28.87
45393;BMP280;31129;44.810;10.334;2022-07-24T03:11:22;100772.69;;;28.85
45393;BMP280;31129;44.810;10.334;2022-07-24T03:13:49;100783.53;;;28.79
45393;BMP280;31129;44.810;10.334;2022-07-24T03:16:15;100778.47;;;28.87
45393;BMP280;31129;44.810;10.334;2022-07-24T03:18:42;100779.75;;;28.64
45393;BMP280;31129;44.810;10.334;2022-07-24T03:21:15;100778.19;;;28.61
45393;BMP280;31129;44.810;10.334;2022-07-24T03:23:41;100783.84;;;28.52
45393;BMP280;31129;44.810;10.334;2022-07-24T03:26:10;100784.50;;;28.62
45393;BMP280;31129;44.810;10.334;2022-07-24T03:28:36;100795.75;;;28.62
45393;BMP280;31129;44.810;10.334;2022-07-24T03:31:02;100788.72;;;28.51
45393;BMP280;31129;44.810;10.334;2022-07-24T03:33:28;100794.22;;;28.49
45393;BMP280;31129;44.810;10.334;2022-07-24T03:35:56;100789.31;;;28.50
45393;BMP280;31129;44.810;10.334;2022-07-24T03:38:22;100788.69;;;28.61
45393;BMP280;31129;44.810;10.334;2022-07-24T03:40:47;100798.63;;;28.52
45393;BMP280;31129;44.810;10.334;2022-07-24T03:43:13;100794.22;;;28.49
45393;BMP280;31129;44.810;10.334;2022-07-24T03:45:39;100796.31;;;28.39
45393;BMP280;31129;44.810;10.334;2022-07-24T03:48:04;100794.50;;;28.44
45393;BMP280;31129;44.810;10.334;2022-07-24T03:50:30;100797.44;;;28.55
45393;BMP280;31129;44.810;10.334;2022-07-24T03:52:55;100803.59;;;28.63
45393;BMP280;31129;44.810;10.334;2022-07-24T03:55:21;100799.34;;;28.53
45393;BMP280;31129;44.810;10.334;2022-07-24T03:57:47;100796.97;;;28.59
45393;BMP280;31129;44.810;10.334;2022-07-24T04:00:13;100804.81;;;28.60
45393;BMP280;31129;44.810;10.334;2022-07-24T04:02:39;100800.75;;;28.73
45393;BMP280;31129;44.810;10.334;2022-07-24T04:05:05;100801.53;;;28.64
45393;BMP280;31129;44.810;10.334;2022-07-24T04:07:37;100805.88;;;28.77
45393;BMP280;31129;44.810;10.334;2022-07-24T04:10:05;100809.03;;;28.71
45393;BMP280;31129;44.810;10.334;2022-07-24T04:12:31;100810.81;;;28.67
45393;BMP280;31129;44.810;10.334;2022-07-24T04:14:56;100806.88;;;28.60
45393;BMP280;31129;44.810;10.334;2022-07-24T04:17:22;100807.16;;;28.64
45393;BMP280;31129;44.810;10.334;2022-07-24T04:19:47;100806.97;;;28.72
45393;BMP280;31129;44.810;10.334;2022-07-24T04:22:13;100810.66;;;28.64
45393;BMP280;31129;44.810;10.334;2022-07-24T04:24:38;100810.41;;;28.60
45393;BMP280;31129;44.810;10.334;2022-07-24T04:27:04;100812.38;;;28.58
45393;BMP280;31129;44.810;10.334;2022-07-24T04:29:29;100810.66;;;28.64
45393;BMP280;31129;44.810;10.334;2022-07-24T04:31:55;100810.81;;;28.67
45393;BMP280;31129;44.810;10.334;2022-07-24T04:34:21;100812.44;;;28.70
45393;BMP280;31129;44.810;10.334;2022-07-24T04:36:46;100811.28;;;28.63
45393;BMP280;31129;44.810;10.334;2022-07-24T04:39:12;100807.56;;;28.70
45393;BMP280;31129;44.810;10.334;2022-07-24T04:41:37;100815.69;;;28.66
45393;BMP280;31129;44.810;10.334;2022-07-24T04:44:03;100814.00;;;28.51
45393;BMP280;31129;44.810;10.334;2022-07-24T04:46:28;100814.84;;;28.63
45393;BMP280;31129;44.810;10.334;2022-07-24T04:48:54;100810.66;;;28.43
45393;BMP280;31129;44.810;10.334;2022-07-24T04:51:19;100809.13;;;28.52
45393;BMP280;31129;44.810;10.334;2022-07-24T04:53:45;100815.38;;;28.41
45393;BMP280;31129;44.810;10.334;2022-07-24T04:56:11;100812.34;;;28.27
45393;BMP280;31129;44.810;10.334;2022-07-24T04:58:37;100821.00;;;28.41
45393;BMP280;31129;44.810;10.334;2022-07-24T05:01:03;100809.59;;;28.39
45393;BMP280;31129;44.810;10.334;2022-07-24T05:03:28;100808.50;;;28.53
45393;BMP280;31129;44.810;10.334;2022-07-24T05:05:54;100809.41;;;28.56
45393;BMP280;31129;44.810;10.334;2022-07-24T05:08:19;100811.63;;;28.57
45393;BMP280;31129;44.810;10.334;2022-07-24T05:10:45;100817.88;;;28.46
45393;BMP280;31129;44.810;10.334;2022-07-24T05:13:10;100810.91;;;28.47
45393;BMP280;31129;44.810;10.334;2022-07-24T05:15:36;100815.06;;;28.46
45393;BMP280;31129;44.810;10.334;2022-07-24T05:18:02;100827.53;;;28.64
45393;BMP280;31129;44.810;10.334;2022-07-24T05:20:27;100823.59;;;28.58
45393;BMP280;31129;44.810;10.334;2022-07-24T05:22:53;100826.47;;;28.39
45393;BMP280;31129;44.810;10.334;2022-07-24T05:25:19;100833.72;;;28.42
45393;BMP280;31129;44.810;10.334;2022-07-24T05:27:44;100829.69;;;28.45
45393;BMP280;31129;44.810;10.334;2022-07-24T05:30:10;100831.50;;;28.40
45393;BMP280;31129;44.810;10.334;2022-07-24T05:32:36;100830.56;;;28.47
45393;BMP280;31129;44.810;10.334;2022-07-24T05:35:02;100827.75;;;28.57
45393;BMP280;31129;44.810;10.334;2022-07-24T05:37:28;100832.03;;;28.58
45393;BMP280;31129;44.810;10.334;2022-07-24T05:39:54;100824.72;;;28.64
45393;BMP280;31129;44.810;10.334;2022-07-24T05:42:19;100833.00;;;28.72
45393;BMP280;31129;44.810;10.334;2022-07-24T05:44:45;100836.53;;;28.73
45393;BMP280;31129;44.810;10.334;2022-07-24T05:47:10;100830.06;;;28.70
45393;BMP280;31129;44.810;10.334;2022-07-24T05:49:36;100837.44;;;28.96
45393;BMP280;31129;44.810;10.334;2022-07-24T05:52:01;100839.22;;;28.92
45393;BMP280;31129;44.810;10.334;2022-07-24T05:54:27;100844.13;;;28.91
45393;BMP280;31129;44.810;10.334;2022-07-24T05:56:53;100846.16;;;29.00
45393;BMP280;31129;44.810;10.334;2022-07-24T05:59:18;100842.31;;;28.96
45393;BMP280;31129;44.810;10.334;2022-07-24T06:01:44;100844.25;;;28.93
45393;BMP280;31129;44.810;10.334;2022-07-24T06:04:09;100847.34;;;28.97
45393;BMP280;31129;44.810;10.334;2022-07-24T06:06:35;100848.69;;;28.66
45393;BMP280;31129;44.810;10.334;2022-07-24T06:09:00;100857.06;;;29.06
45393;BMP280;31129;44.810;10.334;2022-07-24T06:11:26;100850.84;;;29.29
45393;BMP280;31129;44.810;10.334;2022-07-24T06:13:51;100857.66;;;29.04
45393;BMP280;31129;44.810;10.334;2022-07-24T06:16:17;100861.41;;;29.19
45393;BMP280;31129;44.810;10.334;2022-07-24T06:18:42;100856.41;;;29.38
45393;BMP280;31129;44.810;10.334;2022-07-24T06:21:08;100859.69;;;29.35
45393;BMP280;31129;44.810;10.334;2022-07-24T06:23:33;100857.00;;;29.37
45393;BMP280;31129;44.810;10.334;2022-07-24T06:25:59;100854.03;;;29.13
45393;BMP280;31129;44.810;10.334;2022-07-24T06:28:25;100853.38;;;29.03
45393;BMP280;31129;44.810;10.334;2022-07-24T06:30:51;100855.72;;;29.07
45393;BMP280;31129;44.810;10.334;2022-07-24T06:33:16;100861.59;;;28.90
45393;BMP280;31129;44.810;10.334;2022-07-24T06:35:42;100857.41;;;29.22
45393;BMP280;31129;44.810;10.334;2022-07-24T06:38:07;100853.38;;;29.25
45393;BMP280;31129;44.810;10.334;2022-07-24T06:40:35;100855.59;;;29.26
45393;BMP280;31129;44.810;10.334;2022-07-24T06:43:02;100866.03;;;29.14
45393;BMP280;31129;44.810;10.334;2022-07-24T06:45:28;100862.81;;;28.87
45393;BMP280;31129;44.810;10.334;2022-07-24T06:47:56;100858.06;;;28.80
45393;BMP280;31129;44.810;10.334;2022-07-24T06:50:22;100856.06;;;29.23
45393;BMP280;31129;44.810;10.334;2022-07-24T06:52:47;100866.69;;;29.24
45393;BMP280;31129;44.810;10.334;2022-07-24T06:55:13;100864.13;;;28.86
45393;BMP280;31129;44.810;10.334;2022-07-24T06:57:38;100862.94;;;29.10
45393;BMP280;31129;44.810;10.334;2022-07-24T07:00:08;100868.25;;;29.16
45393;BMP280;31129;44.810;10.334;2022-07-24T07:02:35;100870.06;;;29.11
45393;BMP280;31129;44.810;10.334;2022-07-24T07:05:01;100865.44;;;29.16
45393;BMP280;31129;44.810;10.334;2022-07-24T07:07:26;100869.59;;;29.36
45393;BMP280;31129;44.810;10.334;2022-07-24T07:09:52;100870.53;;;29.50
45393;BMP280;31129;44.810;10.334;2022-07-24T07:12:17;100871.06;;;29.37
45393;BMP280;31129;44.810;10.334;2022-07-24T07:14:43;100875.38;;;29.17
45393;BMP280;31129;44.810;10.334;2022-07-24T07:17:08;100864.84;;;29.17
45393;BMP280;31129;44.810;10.334;2022-07-24T07:19:34;100866.25;;;29.49
45393;BMP280;31129;44.810;10.334;2022-07-24T07:21:59;100861.28;;;29.59
45393;BMP280;31129;44.810;10.334;2022-07-24T07:24:25;100865.09;;;29.21
45393;BMP280;31129;44.810;10.334;2022-07-24T07:26:51;100857.88;;;29.39
45393;BMP280;31129;44.810;10.334;2022-07-24T07:29:16;100858.41;;;29.26
45393;BMP280;31129;44.810;10.334;2022-07-24T07:31:41;100856.53;;;29.19
45393;BMP280;31129;44.810;10.334;2022-07-24T07:34:07;100852.25;;;29.39
45393;BMP280;31129;44.810;10.334;2022-07-24T07:36:33;100866.78;;;29.36
45393;BMP280;31129;44.810;10.334;2022-07-24T07:38:59;100858.81;;;29.11
45393;BMP280;31129;44.810;10.334;2022-07-24T07:41:25;100867.88;;;29.31
45393;BMP280;31129;44.810;10.334;2022-07-24T07:43:51;100870.22;;;29.34
45393;BMP280;31129;44.810;10.334;2022-07-24T07:46:17;100867.97;;;29.54
45393;BMP280;31129;44.810;10.334;2022-07-24T07:48:42;100868.28;;;29.70
45393;BMP280;31129;44.810;10.334;2022-07-24T07:51:08;100875.28;;;29.26
45393;BMP280;31129;44.810;10.334;2022-07-24T07:53:34;100861.41;;;29.40
45393;BMP280;31129;44.810;10.334;2022-07-24T07:55:59;100866.81;;;29.69
45393;BMP280;31129;44.810;10.334;2022-07-24T07:58:26;100874.03;;;29.93
45393;BMP280;31129;44.810;10.334;2022-07-24T08:00:53;100865.28;;;29.89
45393;BMP280;31129;44.810;10.334;2022-07-24T08:03:19;100870.22;;;30.00
45393;BMP280;31129;44.810;10.334;2022-07-24T08:05:44;100869.00;;;30.03
45393;BMP280;31129;44.810;10.334;2022-07-24T08:08:10;100871.63;;;30.10
45393;BMP280;31129;44.810;10.334;2022-07-24T08:10:35;100870.25;;;30.11
45393;BMP280;31129;44.810;10.334;2022-07-24T08:13:01;100870.28;;;30.23
45393;BMP280;31129;44.810;10.334;2022-07-24T08:15:26;100869.13;;;29.93
45393;BMP280;31129;44.810;10.334;2022-07-24T08:17:53;100865.81;;;29.97
45393;BMP280;31129;44.810;10.334;2022-07-24T08:20:19;100860.16;;;30.41
45393;BMP280;31129;44.810;10.334;2022-07-24T08:22:46;100863.44;;;30.49
45393;BMP280;31129;44.810;10.334;2022-07-24T08:25:11;100860.72;;;30.51
45393;BMP280;31129;44.810;10.334;2022-07-24T08:27:37;100867.25;;;30.54
45393;BMP280;31129;44.810;10.334;2022-07-24T08:30:05;100867.72;;;30.62
45393;BMP280;31129;44.810;10.334;2022-07-24T08:32:30;100871.28;;;30.39
45393;BMP280;31129;44.810;10.334;2022-07-24T08:34:56;100871.41;;;30.41
45393;BMP280;31129;44.810;10.334;2022-07-24T08:37:21;100873.50;;;30.64
45393;BMP280;31129;44.810;10.334;2022-07-24T08:39:47;100866.88;;;30.71
45393;BMP280;31129;44.810;10.334;2022-07-24T08:42:13;100872.03;;;30.86
45393;BMP280;31129;44.810;10.334;2022-07-24T08:44:38;100872.72;;;30.98
45393;BMP280;31129;44.810;10.334;2022-07-24T08:47:06;100873.31;;;31.08
45393;BMP280;31129;44.810;10.334;2022-07-24T08:49:35;100865.13;;;31.01
45393;BMP280;31129;44.810;10.334;2022-07-24T08:52:03;100872.66;;;31.22
45393;BMP280;31129;44.810;10.334;2022-07-24T08:54:30;100878.91;;;31.20
45393;BMP280;31129;44.810;10.334;2022-07-24T08:56:57;100882.47;;;31.21
45393;BMP280;31129;44.810;10.334;2022-07-24T08:59:24;100875.44;;;30.85
45393;BMP280;31129;44.810;10.334;2022-07-24T09:01:50;100881.88;;;31.22
45393;BMP280;31129;44.810;10.334;2022-07-24T09:07:00;100877.91;;;31.27
45393;BMP280;31129;44.810;10.334;2022-07-24T09:09:26;100880.19;;;31.42
45393;BMP280;31129;44.810;10.334;2022-07-24T09:14:34;100882.66;;;31.48
45393;BMP280;31129;44.810;10.334;2022-07-24T09:17:04;100893.47;;;31.40
45393;BMP280;31129;44.810;10.334;2022-07-24T09:19:29;100882.41;;;31.69
45393;BMP280;31129;44.810;10.334;2022-07-24T09:21:55;100874.91;;;31.74
45393;BMP280;31129;44.810;10.334;2022-07-24T09:24:21;100876.72;;;31.81
45393;BMP280;31129;44.810;10.334;2022-07-24T09:26:50;100876.25;;;31.98
45393;BMP280;31129;44.810;10.334;2022-07-24T09:29:18;100869.81;;;32.09
45393;BMP280;31129;44.810;10.334;2022-07-24T09:31:56;100880.00;;;32.28
45393;BMP280;31129;44.810;10.334;2022-07-24T09:34:26;100879.06;;;32.37
45393;BMP280;31129;44.810;10.334;2022-07-24T09:37:00;100868.28;;;31.94
45393;BMP280;31129;44.810;10.334;2022-07-24T09:39:28;100875.59;;;32.25
45393;BMP280;31129;44.810;10.334;2022-07-24T09:41:55;100878.56;;;32.01
45393;BMP280;31129;44.810;10.334;2022-07-24T09:44:21;100877.78;;;32.26
45393;BMP280;31129;44.810;10.334;2022-07-24T09:46:58;100876.88;;;32.35
45393;BMP280;31129;44.810;10.334;2022-07-24T09:49:25;100872.44;;;32.32
45393;BMP280;31129;44.810;10.334;2022-07-24T09:52:16;100875.75;;;32.15
45393;BMP280;31129;44.810;10.334;2022-07-24T09:54:48;100874.44;;;32.43
45393;BMP280;31129;44.810;10.334;2022-07-24T10:02:14;100872.38;;;32.44
45393;BMP280;31129;44.810;10.334;2022-07-24T10:04:41;100864.31;;;32.52
45393;BMP280;31129;44.810;10.334;2022-07-24T10:07:10;100871.09;;;32.60
45393;BMP280;31129;44.810;10.334;2022-07-24T10:09:40;100873.63;;;32.54
45393;BMP280;31129;44.810;10.334;2022-07-24T10:12:13;100868.56;;;32.39
45393;BMP280;31129;44.810;10.334;2022-07-24T10:14:39;100864.47;;;32.29
45393;BMP280;31129;44.810;10.334;2022-07-24T10:17:08;100859.91;;;32.35
45393;BMP280;31129;44.810;10.334;2022-07-24T10:19:44;100864.09;;;32.61
45393;BMP280;31129;44.810;10.334;2022-07-24T10:22:17;100862.94;;;32.66
45393;BMP280;31129;44.810;10.334;2022-07-24T10:29:51;100871.91;;;32.90
45393;BMP280;31129;44.810;10.334;2022-07-24T10:32:18;100860.94;;;32.96
45393;BMP280;31129;44.810;10.334;2022-07-24T10:37:22;100853.88;;;32.97
45393;BMP280;31129;44.810;10.334;2022-07-24T10:45:46;100854.09;;;33.31
45393;BMP280;31129;44.810;10.334;2022-07-24T10:53:25;100847.41;;;33.24
45393;BMP280;31129;44.810;10.334;2022-07-24T10:55:51;100845.00;;;33.48
45393;BMP280;31129;44.810;10.334;2022-07-24T10:58:17;100840.09;;;33.79
45393;BMP280;31129;44.810;10.334;2022-07-24T11:00:47;100835.00;;;33.92
45393;BMP280;31129;44.810;10.334;2022-07-24T11:03:22;100829.06;;;34.01
45393;BMP280;31129;44.810;10.334;2022-07-24T11:06:04;100833.16;;;33.98
45393;BMP280;31129;44.810;10.334;2022-07-24T11:08:31;100822.84;;;33.73
45393;BMP280;31129;44.810;10.334;2022-07-24T11:11:06;100818.34;;;33.84
45393;BMP280;31129;44.810;10.334;2022-07-24T11:18:39;100815.19;;;34.41
45393;BMP280;31129;44.810;10.334;2022-07-24T11:21:06;100806.19;;;34.46
45393;BMP280;31129;44.810;10.334;2022-07-24T11:23:31;100810.34;;;34.27
45393;BMP280;31129;44.810;10.334;2022-07-24T11:29:13;100811.38;;;34.52
45393;BMP280;31129;44.810;10.334;2022-07-24T11:31:40;100801.63;;;34.90
45393;BMP280;31129;44.810;10.334;2022-07-24T11:34:08;100807.78;;;34.84
45393;BMP280;31129;44.810;10.334;2022-07-24T11:36:40;100802.25;;;34.53
45393;BMP280;31129;44.810;10.334;2022-07-24T11:39:07;100797.63;;;34.62
45393;BMP280;31129;44.810;10.334;2022-07-24T11:44:10;100793.66;;;34.86
45393;BMP280;31129;44.810;10.334;2022-07-24T11:46:40;100785.47;;;34.77
45393;BMP280;31129;44.810;10.334;2022-07-24T11:49:08;100787.91;;;35.02
45393;BMP280;31129;44.810;10.334;2022-07-24T11:52:00;100786.56;;;35.40
45393;BMP280;31129;44.810;10.334;2022-07-24T11:54:27;100781.25;;;35.50
45393;BMP280;31129;44.810;10.334;2022-07-24T11:56:55;100776.38;;;35.53
45393;BMP280;31129;44.810;10.334;2022-07-24T11:59:26;100775.56;;;35.13
45393;BMP280;31129;44.810;10.334;2022-07-24T12:02:10;100774.88;;;34.95
45393;BMP280;31129;44.810;10.334;2022-07-24T12:04:38;100773.78;;;35.04
45393;BMP280;31129;44.810;10.334;2022-07-24T12:07:09;100771.97;;;35.30
45393;BMP280;31129;44.810;10.334;2022-07-24T12:09:53;100760.38;;;35.62
45393;BMP280;31129;44.810;10.334;2022-07-24T12:12:27;100760.94;;;35.78
45393;BMP280;31129;44.810;10.334;2022-07-24T12:20:36;100765.91;;;36.40
45393;BMP280;31129;44.810;10.334;2022-07-24T12:23:07;100764.31;;;36.57
45393;BMP280;31129;44.810;10.334;2022-07-24T12:25:33;100768.03;;;36.61
45393;BMP280;31129;44.810;10.334;2022-07-24T12:28:10;100763.56;;;36.33
45393;BMP280;31129;44.810;10.334;2022-07-24T12:30:42;100750.84;;;36.14
45393;BMP280;31129;44.810;10.334;2022-07-24T12:33:19;100752.75;;;36.29
45393;BMP280;31129;44.810;10.334;2022-07-24T12:35:56;100752.13;;;35.89
45393;BMP280;31129;44.810;10.334;2022-07-24T12:38:30;100747.59;;;36.24
45393;BMP280;31129;44.810;10.334;2022-07-24T12:43:48;100743.56;;;36.52
45393;BMP280;31129;44.810;10.334;2022-07-24T12:46:15;100744.38;;;36.79
45393;BMP280;31129;44.810;10.334;2022-07-24T12:48:59;100746.69;;;37.08
45393;BMP280;31129;44.810;10.334;2022-07-24T12:51:25;100741.59;;;37.04
45393;BMP280;31129;44.810;10.334;2022-07-24T12:53:55;100742.69;;;37.17
45393;BMP280;31129;44.810;10.334;2022-07-24T12:56:21;100738.88;;;37.34
45393;BMP280;31129;44.810;10.334;2022-07-24T12:58:56;100729.69;;;37.89
45393;BMP280;31129;44.810;10.334;2022-07-24T13:01:24;100726.81;;;37.36
45393;BMP280;31129;44.810;10.334;2022-07-24T13:06:31;100728.03;;;36.79
45393;BMP280;31129;44.810;10.334;2022-07-24T13:08:57;100722.13;;;36.73
45393;BMP280;31129;44.810;10.334;2022-07-24T13:11:23;100728.75;;;36.34
45393;BMP280;31129;44.810;10.334;2022-07-24T13:13:48;100718.56;;;36.73
45393;BMP280;31129;44.810;10.334;2022-07-24T13:16:13;100718.13;;;36.58
45393;BMP280;31129;44.810;10.334;2022-07-24T13:18:39;100712.19;;;36.29
45393;BMP280;31129;44.810;10.334;2022-07-24T13:21:05;100714.59;;;36.15
45393;BMP280;31129;44.810;10.334;2022-07-24T13:23:30;100718.03;;;36.11
45393;BMP280;31129;44.810;10.334;2022-07-24T13:25:56;100722.84;;;36.50
45393;BMP280;31129;44.810;10.334;2022-07-24T13:28:21;100715.53;;;36.45
45393;BMP280;31129;44.810;10.334;2022-07-24T13:30:47;100716.88;;;37.11
45393;BMP280;31129;44.810;10.334;2022-07-24T13:33:12;100710.06;;;37.48
45393;BMP280;31129;44.810;10.334;2022-07-24T13:35:38;100712.66;;;37.65
45393;BMP280;31129;44.810;10.334;2022-07-24T13:38:03;100711.16;;;38.18
45393;BMP280;31129;44.810;10.334;2022-07-24T13:40:29;100712.91;;;38.63
45393;BMP280;31129;44.810;10.334;2022-07-24T13:42:54;100714.00;;;38.47
45393;BMP280;31129;44.810;10.334;2022-07-24T13:45:19;100709.38;;;38.32
45393;BMP280;31129;44.810;10.334;2022-07-24T13:47:45;100706.38;;;38.58
45393;BMP280;31129;44.810;10.334;2022-07-24T13:50:11;100703.56;;;38.60
45393;BMP280;31129;44.810;10.334;2022-07-24T13:52:36;100711.53;;;38.66
45393;BMP280;31129;44.810;10.334;2022-07-24T13:55:02;100704.09;;;38.51
45393;BMP280;31129;44.810;10.334;2022-07-24T13:57:29;100694.13;;;38.22
45393;BMP280;31129;44.810;10.334;2022-07-24T13:59:54;100695.22;;;38.38
45393;BMP280;31129;44.810;10.334;2022-07-24T14:02:22;100696.47;;;38.61
45393;BMP280;31129;44.810;10.334;2022-07-24T14:04:48;100682.44;;;39.09
45393;BMP280;31129;44.810;10.334;2022-07-24T14:07:13;100686.50;;;38.64
45393;BMP280;31129;44.810;10.334;2022-07-24T14:09:39;100684.88;;;38.55
45393;BMP280;31129;44.810;10.334;2022-07-24T14:12:04;100679.38;;;38.97
45393;BMP280;31129;44.810;10.334;2022-07-24T14:14:30;100670.50;;;39.19
45393;BMP280;31129;44.810;10.334;2022-07-24T14:16:55;100662.09;;;39.68
45393;BMP280;31129;44.810;10.334;2022-07-24T14:19:22;100665.56;;;38.87
45393;BMP280;31129;44.810;10.334;2022-07-24T14:21:47;100662.50;;;38.75
45393;BMP280;31129;44.810;10.334;2022-07-24T14:24:15;100659.97;;;39.29
45393;BMP280;31129;44.810;10.334;2022-07-24T14:26:41;100652.94;;;38.98
45393;BMP280;31129;44.810;10.334;2022-07-24T14:29:06;100662.00;;;38.87
45393;BMP280;31129;44.810;10.334;2022-07-24T14:31:32;100650.81;;;39.37
45393;BMP280;31129;44.810;10.334;2022-07-24T14:33:57;100647.38;;;39.44
45393;BMP280;31129;44.810;10.334;2022-07-24T14:36:22;100655.94;;;39.44